首页
METAR-TAF:

METAR-TAF

机场 :

Parsons, 田纳西州, 美国

纬度: 35-39-23N, 经度: 088-11-43W, 海拔: 149米

当前天气观测

该预报发布于26分钟前的23:35 UTC
风速9节,风向南转西南,有时为15节阵风
温度 18°C
湿度 88%
气压 1009 hPa
能見度: 16.1公里
多云层高于3800英尺
阴天层高于4800英尺

METAR: KPVE 092335Z AUTO 21009G15KT 10SM BKN038 OVC048 18/16 A2979 RMK A01

时间: 18:01 (00:01 UTC)


TAF: 丢失

超过4000个机场的气象观测和天气预报(METAR&TAF报告)。

可查询的气象台以黄色和红色小点在地图上表示。

将鼠标移到小点上方,可查看气象台名称。

然后点击查看天气观测和预报。

如需切换地图:点击带黑十字的绿色按钮放大地图;点击带横线的绿色按钮缩小地图;或者点击绿色箭头查看邻近地区的地图。


METAR-TAF: